createdAt,value
2017-10-30T00:00:05.289Z,7.30
2017-10-30T00:02:32.738Z,7.30
2017-10-30T00:05:00.144Z,7.30
2017-10-30T00:07:27.579Z,7.30
2017-10-30T00:09:55.032Z,7.20
2017-10-30T00:12:22.488Z,7.20
2017-10-30T00:14:49.904Z,7.20
2017-10-30T00:17:18.089Z,7.20
2017-10-30T00:19:45.528Z,7.20
2017-10-30T00:22:12.945Z,7.20
2017-10-30T00:24:40.381Z,7.20
2017-10-30T00:27:07.799Z,7.10
2017-10-30T00:29:35.236Z,7.10
2017-10-30T00:32:03.421Z,7.10
2017-10-30T00:34:30.857Z,7.10
2017-10-30T00:36:58.376Z,7.10
2017-10-30T00:39:25.810Z,7.10
2017-10-30T00:41:53.237Z,7.00
2017-10-30T00:44:20.672Z,7.10
2017-10-30T00:46:48.100Z,7.00
2017-10-30T00:49:15.660Z,7.00
2017-10-30T00:51:43.089Z,7.00
2017-10-30T00:54:10.527Z,7.00
2017-10-30T00:56:37.958Z,6.90
2017-10-30T00:59:05.388Z,6.90
2017-10-30T01:01:32.808Z,6.90
2017-10-30T01:04:00.276Z,6.80
2017-10-30T01:06:27.697Z,6.80
2017-10-30T01:08:55.892Z,6.90
2017-10-30T01:11:23.320Z,6.80
2017-10-30T01:13:50.739Z,6.90
2017-10-30T01:16:18.211Z,6.90
2017-10-30T01:18:45.632Z,6.90
2017-10-30T01:21:13.061Z,6.80
2017-10-30T01:23:41.264Z,6.80
2017-10-30T01:26:08.737Z,6.70
2017-10-30T01:28:36.174Z,6.70
2017-10-30T01:31:03.625Z,6.70
2017-10-30T01:33:31.052Z,6.60
2017-10-30T01:35:58.485Z,6.70
2017-10-30T01:38:25.910Z,6.60
2017-10-30T01:40:53.336Z,6.60
2017-10-30T01:43:20.790Z,6.60
2017-10-30T01:45:48.955Z,6.60
2017-10-30T01:48:16.387Z,6.50
2017-10-30T01:50:43.803Z,6.50
2017-10-30T01:53:11.236Z,6.50
2017-10-30T01:55:38.651Z,6.50
2017-10-30T01:58:06.087Z,6.50
2017-10-30T02:00:33.504Z,6.50
2017-10-30T02:03:00.941Z,6.50
2017-10-30T02:05:28.364Z,6.50
2017-10-30T02:07:55.795Z,6.50
2017-10-30T02:10:23.219Z,6.50
2017-10-30T02:12:50.644Z,6.40
2017-10-30T02:15:18.077Z,6.40
2017-10-30T02:17:45.496Z,6.40
2017-10-30T02:20:12.928Z,6.40
2017-10-30T02:22:41.108Z,6.30
2017-10-30T02:25:08.536Z,6.30
2017-10-30T02:27:36.738Z,6.30
2017-10-30T02:30:04.165Z,6.30
2017-10-30T02:32:31.593Z,6.30
2017-10-30T02:34:59.063Z,6.30
2017-10-30T02:37:26.469Z,6.30
2017-10-30T02:39:53.891Z,6.30
2017-10-30T02:42:21.312Z,6.30
2017-10-30T02:44:48.760Z,6.30
2017-10-30T02:47:16.175Z,6.30
2017-10-30T02:49:44.372Z,6.20
2017-10-30T02:52:11.801Z,6.20
2017-10-30T02:54:39.230Z,6.20
2017-10-30T02:57:06.661Z,6.10
2017-10-30T02:59:34.156Z,6.10
2017-10-30T03:02:01.580Z,6.10
2017-10-30T03:04:29.008Z,6.10
2017-10-30T03:06:56.429Z,6.00
2017-10-30T03:09:23.894Z,6.00
2017-10-30T03:11:51.308Z,6.00
2017-10-30T03:14:18.733Z,6.00
2017-10-30T03:16:46.161Z,6.00
2017-10-30T03:19:13.580Z,6.00
2017-10-30T03:21:41.025Z,6.00
2017-10-30T03:24:08.457Z,6.00
2017-10-30T03:26:35.881Z,6.00
2017-10-30T03:29:03.316Z,5.90
2017-10-30T03:31:30.737Z,5.90
2017-10-30T03:33:58.175Z,5.80
2017-10-30T03:36:25.597Z,5.80
2017-10-30T03:38:53.019Z,5.80
2017-10-30T03:41:20.440Z,5.70
2017-10-30T03:43:47.872Z,5.60
2017-10-30T03:46:15.291Z,5.60
2017-10-30T03:48:42.738Z,5.60
2017-10-30T03:51:10.141Z,5.50
2017-10-30T03:53:37.571Z,5.50
2017-10-30T03:56:05.017Z,5.50
2017-10-30T03:58:32.440Z,5.40
2017-10-30T04:00:59.868Z,5.40
2017-10-30T04:03:28.064Z,5.30
2017-10-30T04:05:55.489Z,5.30
2017-10-30T04:08:22.935Z,5.30
2017-10-30T04:10:51.111Z,5.30
2017-10-30T04:13:18.530Z,5.30
2017-10-30T04:15:45.952Z,5.20
2017-10-30T04:18:13.377Z,5.20
2017-10-30T04:20:40.800Z,5.20
2017-10-30T04:23:08.228Z,5.20
2017-10-30T04:25:35.657Z,5.10
2017-10-30T04:28:03.832Z,5.10
2017-10-30T04:30:31.270Z,5.10
2017-10-30T04:32:58.684Z,5.10
2017-10-30T04:35:26.124Z,5.10
2017-10-30T04:37:53.523Z,5.10
2017-10-30T04:40:20.952Z,5.10
2017-10-30T04:42:48.387Z,5.10
2017-10-30T04:45:15.811Z,5.10
2017-10-30T04:47:43.236Z,5.10
2017-10-30T04:50:10.680Z,5.10
2017-10-30T04:52:38.097Z,5.00
2017-10-30T04:55:05.516Z,5.00
2017-10-30T04:57:32.943Z,4.90
2017-10-30T05:00:00.364Z,4.90
2017-10-30T05:02:28.556Z,4.80
2017-10-30T05:04:55.972Z,4.80
2017-10-30T05:07:23.400Z,4.90
2017-10-30T05:09:50.817Z,4.90
2017-10-30T05:12:18.235Z,4.90
2017-10-30T05:14:45.651Z,5.00
2017-10-30T05:17:13.079Z,5.00
2017-10-30T05:19:40.517Z,5.00
2017-10-30T05:22:08.104Z,5.10
2017-10-30T05:24:35.569Z,5.20
2017-10-30T05:27:03.740Z,5.30
2017-10-30T05:29:31.155Z,5.20
2017-10-30T05:31:58.604Z,5.30
2017-10-30T05:34:26.021Z,5.30
2017-10-30T05:36:53.580Z,5.30
2017-10-30T05:39:21.004Z,5.30
2017-10-30T05:41:48.420Z,5.30
2017-10-30T05:44:15.857Z,5.30
2017-10-30T05:46:43.282Z,5.40
2017-10-30T05:49:10.764Z,5.40
2017-10-30T05:51:38.188Z,5.40
2017-10-30T05:54:05.622Z,5.40
2017-10-30T05:56:33.796Z,5.40
2017-10-30T05:59:01.243Z,5.40
2017-10-30T06:01:28.660Z,5.40
2017-10-30T06:03:56.097Z,5.40
2017-10-30T06:06:23.664Z,5.40
2017-10-30T06:08:51.091Z,5.50
2017-10-30T06:11:18.510Z,5.40
2017-10-30T06:13:45.932Z,5.40
2017-10-30T06:16:13.360Z,5.50
2017-10-30T06:18:40.776Z,5.50
2017-10-30T06:21:08.212Z,5.50
2017-10-30T06:23:35.628Z,5.50
2017-10-30T06:26:03.056Z,5.50
2017-10-30T06:28:30.471Z,5.50
2017-10-30T06:30:57.905Z,5.50
2017-10-30T06:33:25.326Z,5.50
2017-10-30T06:35:52.765Z,5.60
2017-10-30T06:38:20.192Z,5.60
2017-10-30T06:40:47.625Z,5.60
2017-10-30T06:43:15.044Z,5.60
2017-10-30T06:45:43.252Z,5.70
2017-10-30T06:48:10.673Z,5.70
2017-10-30T06:50:38.129Z,5.70
2017-10-30T06:53:05.549Z,5.70
2017-10-30T06:55:32.973Z,5.80
2017-10-30T06:58:00.405Z,5.80
2017-10-30T07:00:28.593Z,5.90
2017-10-30T07:02:57.823Z,5.90
2017-10-30T07:05:25.240Z,6.00
2017-10-30T07:07:53.448Z,6.00
2017-10-30T07:10:20.856Z,6.00
2017-10-30T07:12:48.288Z,6.00
2017-10-30T07:15:15.719Z,6.10
2017-10-30T07:17:43.144Z,6.10
2017-10-30T07:20:10.562Z,6.20
2017-10-30T07:22:38.101Z,6.30
2017-10-30T07:25:05.521Z,6.40
2017-10-30T07:27:32.968Z,6.40
2017-10-30T07:30:00.392Z,6.40
2017-10-30T07:32:27.819Z,6.40
2017-10-30T07:34:55.248Z,6.50
2017-10-30T07:37:22.668Z,6.50
2017-10-30T07:39:50.091Z,6.60
2017-10-30T07:42:17.522Z,6.70
2017-10-30T07:44:44.952Z,6.80
2017-10-30T07:47:12.371Z,6.80
2017-10-30T07:49:39.808Z,6.80
2017-10-30T07:52:07.236Z,6.90
2017-10-30T07:54:34.677Z,6.90
2017-10-30T07:57:02.100Z,6.90
2017-10-30T07:59:29.532Z,7.00
2017-10-30T08:01:56.957Z,7.10
2017-10-30T08:04:24.405Z,7.20
2017-10-30T08:06:51.828Z,7.40
2017-10-30T08:09:19.257Z,7.50
2017-10-30T08:11:46.695Z,7.60
2017-10-30T08:14:14.120Z,7.80
2017-10-30T08:16:41.557Z,7.90
2017-10-30T08:19:08.984Z,8.00
2017-10-30T08:21:36.424Z,8.10
2017-10-30T08:24:03.849Z,8.20
2017-10-30T08:26:31.268Z,8.30
2017-10-30T08:28:58.700Z,8.30
2017-10-30T08:31:26.131Z,8.40
2017-10-30T08:33:53.550Z,8.50
2017-10-30T08:36:21.005Z,8.50
2017-10-30T08:38:48.407Z,8.60
2017-10-30T08:41:15.836Z,8.70
2017-10-30T08:43:43.251Z,8.80
2017-10-30T08:46:10.784Z,8.90
2017-10-30T08:48:38.220Z,8.90
2017-10-30T08:51:05.677Z,9.00
2017-10-30T08:53:33.084Z,9.20
2017-10-30T08:56:00.505Z,9.30
2017-10-30T08:58:27.984Z,9.50
2017-10-30T09:00:55.399Z,9.60
2017-10-30T09:03:22.835Z,9.80
2017-10-30T09:05:51.019Z,10.10
2017-10-30T09:08:18.501Z,10.10
2017-10-30T09:10:45.924Z,10.20
2017-10-30T09:13:13.352Z,10.30
2017-10-30T09:15:40.779Z,10.30
2017-10-30T09:18:08.237Z,10.40
2017-10-30T09:20:35.767Z,10.50
2017-10-30T09:23:03.196Z,10.60
2017-10-30T09:25:30.624Z,10.60
2017-10-30T09:27:58.078Z,10.70
2017-10-30T09:30:25.515Z,10.80
2017-10-30T09:32:52.936Z,10.90
2017-10-30T09:35:20.370Z,10.90
2017-10-30T09:37:48.566Z,11.00
2017-10-30T09:40:15.993Z,10.90
2017-10-30T09:42:43.434Z,11.10
2017-10-30T09:45:10.859Z,11.20
2017-10-30T09:47:38.276Z,11.20
2017-10-30T09:50:06.498Z,11.40
2017-10-30T09:52:33.905Z,11.40
2017-10-30T09:55:01.345Z,11.50
2017-10-30T09:57:28.768Z,11.50
2017-10-30T09:59:56.196Z,11.60
2017-10-30T10:02:23.615Z,11.70
2017-10-30T10:04:51.811Z,11.80
2017-10-30T10:07:19.232Z,11.80
2017-10-30T10:09:46.751Z,11.80
2017-10-30T10:12:14.180Z,11.90
2017-10-30T10:14:41.665Z,11.90
2017-10-30T10:17:09.105Z,11.90
2017-10-30T10:19:36.519Z,11.90
2017-10-30T10:22:04.025Z,12.00
2017-10-30T10:24:31.452Z,12.10
2017-10-30T10:26:58.885Z,12.30
2017-10-30T10:29:26.311Z,12.50
2017-10-30T10:31:53.752Z,12.70
2017-10-30T10:34:21.183Z,12.70
2017-10-30T10:36:48.612Z,12.90
2017-10-30T10:39:16.811Z,13.10
2017-10-30T10:41:44.252Z,13.10
2017-10-30T10:44:11.675Z,13.20
2017-10-30T10:46:39.103Z,13.20
2017-10-30T10:49:06.536Z,13.30
2017-10-30T10:51:34.052Z,13.40
2017-10-30T10:54:01.494Z,13.30
2017-10-30T10:56:28.925Z,13.10
2017-10-30T10:58:56.389Z,13.00
2017-10-30T11:01:23.812Z,12.80
2017-10-30T11:03:51.245Z,12.70
2017-10-30T11:06:18.668Z,12.70
2017-10-30T11:08:46.102Z,12.70
2017-10-30T11:11:13.524Z,12.70
2017-10-30T11:13:40.964Z,12.70
2017-10-30T11:16:08.388Z,13.00
2017-10-30T11:18:35.819Z,13.50
2017-10-30T11:21:03.244Z,14.00
2017-10-30T11:23:30.677Z,14.40
2017-10-30T11:25:58.104Z,14.60
2017-10-30T11:28:25.540Z,14.60
2017-10-30T11:30:52.960Z,14.40
2017-10-30T11:33:21.159Z,14.30
2017-10-30T11:35:48.575Z,14.30
2017-10-30T11:38:16.106Z,14.30
2017-10-30T11:40:43.532Z,14.40
2017-10-30T11:43:10.964Z,14.50
2017-10-30T11:45:38.397Z,14.60
2017-10-30T11:48:05.825Z,14.60
2017-10-30T11:50:33.255Z,14.70
2017-10-30T11:53:00.671Z,14.70
2017-10-30T11:55:28.100Z,14.60
2017-10-30T11:57:55.516Z,14.50
2017-10-30T12:00:22.943Z,14.50
2017-10-30T12:02:51.132Z,14.50
2017-10-30T12:05:18.569Z,14.50
2017-10-30T12:07:45.997Z,14.60
2017-10-30T12:10:13.429Z,14.70
2017-10-30T12:12:40.855Z,15.10
2017-10-30T12:15:08.284Z,15.60
2017-10-30T12:17:37.212Z,16.00
2017-10-30T12:20:04.640Z,16.00
2017-10-30T12:22:32.064Z,16.10
2017-10-30T12:24:59.480Z,16.40
2017-10-30T12:27:26.892Z,16.80
2017-10-30T12:29:54.336Z,17.30
2017-10-30T12:32:21.756Z,17.60
2017-10-30T12:34:49.176Z,17.50
2017-10-30T12:37:18.112Z,17.10
2017-10-30T12:39:45.524Z,17.10
2017-10-30T12:42:12.948Z,16.80
2017-10-30T12:44:40.368Z,16.60
2017-10-30T12:47:07.788Z,16.40
2017-10-30T12:49:35.214Z,16.10
2017-10-30T12:52:02.632Z,16.00
2017-10-30T12:54:30.045Z,16.20
2017-10-30T12:56:58.971Z,17.20
2017-10-30T12:59:26.387Z,17.20
2017-10-30T13:01:53.820Z,17.50
2017-10-30T13:04:21.235Z,17.20
2017-10-30T13:06:48.664Z,16.90
2017-10-30T13:09:16.085Z,16.60
2017-10-30T13:11:43.517Z,16.50
2017-10-30T13:14:11.196Z,16.40
2017-10-30T13:16:38.624Z,17.10
2017-10-30T13:19:06.036Z,17.90
2017-10-30T13:21:33.481Z,18.50
2017-10-30T13:24:00.895Z,19.10
2017-10-30T13:26:28.307Z,19.90
2017-10-30T13:28:55.741Z,20.40
2017-10-30T13:31:23.152Z,20.70
2017-10-30T13:33:50.580Z,20.90
2017-10-30T13:36:17.996Z,20.90
2017-10-30T13:38:45.425Z,21.10
2017-10-30T13:41:12.847Z,20.80
2017-10-30T13:43:40.273Z,21.20
2017-10-30T13:46:07.700Z,21.80
2017-10-30T13:48:35.116Z,22.10
2017-10-30T13:51:02.541Z,23.00
2017-10-30T13:53:29.979Z,23.10
2017-10-30T13:55:57.391Z,22.70
2017-10-30T13:58:24.803Z,22.30
2017-10-30T14:00:52.232Z,22.20
2017-10-30T14:03:19.668Z,22.10
2017-10-30T14:05:47.104Z,22.40
2017-10-30T14:08:14.521Z,22.60
2017-10-30T14:10:41.948Z,21.90
2017-10-30T14:13:09.368Z,21.20
2017-10-30T14:15:36.792Z,20.60
2017-10-30T14:18:04.207Z,20.40
2017-10-30T14:20:31.636Z,20.90
2017-10-30T14:22:59.047Z,21.10
2017-10-30T14:25:26.483Z,21.90
2017-10-30T14:27:53.901Z,22.60
2017-10-30T14:30:21.349Z,22.70
2017-10-30T14:32:48.767Z,22.20
2017-10-30T14:35:16.175Z,21.40
2017-10-30T14:37:44.370Z,19.70
2017-10-30T14:40:11.796Z,19.60
2017-10-30T14:42:39.216Z,19.00
2017-10-30T14:45:06.637Z,18.50
2017-10-30T14:47:34.067Z,17.90
2017-10-30T14:50:01.480Z,17.40
2017-10-30T14:52:29.137Z,16.90
2017-10-30T14:54:56.557Z,16.50
2017-10-30T14:57:23.987Z,16.30
2017-10-30T14:59:51.400Z,16.00
2017-10-30T15:02:18.832Z,15.70
2017-10-30T15:04:46.244Z,15.40
2017-10-30T15:07:13.692Z,15.20
2017-10-30T15:09:41.108Z,14.90
2017-10-30T15:12:08.526Z,14.60
2017-10-30T15:14:37.705Z,14.30
2017-10-30T15:17:05.141Z,14.30
2017-10-30T15:19:32.565Z,14.20
2017-10-30T15:21:59.986Z,14.00
2017-10-30T15:24:27.421Z,13.90
2017-10-30T15:26:54.839Z,13.70
2017-10-30T15:29:22.306Z,13.60
2017-10-30T15:31:49.738Z,13.40
2017-10-30T15:34:17.169Z,13.20
2017-10-30T15:36:44.602Z,13.10
2017-10-30T15:39:12.057Z,13.00
2017-10-30T15:41:39.481Z,12.80
2017-10-30T15:44:06.924Z,12.70
2017-10-30T15:46:34.348Z,12.60
2017-10-30T15:49:01.785Z,12.50
2017-10-30T15:51:29.316Z,12.50
2017-10-30T15:53:56.744Z,12.40
2017-10-30T15:56:24.242Z,12.30
2017-10-30T15:58:51.660Z,12.30
2017-10-30T16:01:19.088Z,12.20
2017-10-30T16:03:46.535Z,12.10
2017-10-30T16:06:13.949Z,12.10
2017-10-30T16:08:41.376Z,12.00
2017-10-30T16:11:08.812Z,11.90
2017-10-30T16:13:37.009Z,11.80
2017-10-30T16:16:04.444Z,11.80
2017-10-30T16:18:31.873Z,11.70
2017-10-30T16:20:59.328Z,11.60
2017-10-30T16:23:26.753Z,11.50
2017-10-30T16:25:54.176Z,11.40
2017-10-30T16:28:22.371Z,11.30
2017-10-30T16:30:49.798Z,11.20
2017-10-30T16:33:17.224Z,11.20
2017-10-30T16:35:44.668Z,11.10
2017-10-30T16:38:12.089Z,11.00
2017-10-30T16:40:39.513Z,11.00
2017-10-30T16:43:06.939Z,11.00
2017-10-30T16:45:34.389Z,11.00
2017-10-30T16:48:01.808Z,11.00
2017-10-30T16:50:29.496Z,10.90
2017-10-30T16:52:56.923Z,10.90
2017-10-30T16:55:24.343Z,10.80
2017-10-30T16:57:52.555Z,10.70
2017-10-30T17:00:19.992Z,10.70
2017-10-30T17:02:47.403Z,10.70
2017-10-30T17:05:14.840Z,10.60
2017-10-30T17:07:42.268Z,10.60
2017-10-30T17:10:09.708Z,10.50
2017-10-30T17:12:37.124Z,10.50
2017-10-30T17:15:04.562Z,10.50
2017-10-30T17:17:31.979Z,10.50
2017-10-30T17:20:00.180Z,10.40
2017-10-30T17:22:27.604Z,10.40
2017-10-30T17:24:55.031Z,10.40
2017-10-30T17:27:22.451Z,10.40
2017-10-30T17:29:49.893Z,10.40
2017-10-30T17:32:17.320Z,10.20
2017-10-30T17:34:44.752Z,10.20
2017-10-30T17:37:12.175Z,10.10
2017-10-30T17:39:39.604Z,10.10
2017-10-30T17:42:07.023Z,10.10
2017-10-30T17:44:34.451Z,10.00
2017-10-30T17:47:01.888Z,10.00
2017-10-30T17:49:30.196Z,9.90
2017-10-30T17:51:57.642Z,9.80
2017-10-30T17:54:25.820Z,9.70
2017-10-30T17:56:53.248Z,9.60
2017-10-30T17:59:20.668Z,9.60
2017-10-30T18:01:48.097Z,9.60
2017-10-30T18:04:15.515Z,9.60
2017-10-30T18:06:42.948Z,9.60
2017-10-30T18:09:11.128Z,8.40
2017-10-30T18:11:38.557Z,9.50
2017-10-30T18:14:05.988Z,9.50
2017-10-30T18:16:33.456Z,9.40
2017-10-30T18:19:00.872Z,9.40
2017-10-30T18:21:28.285Z,9.30
2017-10-30T18:23:55.721Z,9.30
2017-10-30T18:26:23.398Z,9.20
2017-10-30T18:28:50.858Z,9.20
2017-10-30T18:31:18.385Z,9.20
2017-10-30T18:33:45.815Z,9.10
2017-10-30T18:36:13.294Z,9.10
2017-10-30T18:38:40.718Z,9.10
2017-10-30T18:41:08.132Z,9.00
2017-10-30T18:43:35.580Z,9.00
2017-10-30T18:46:03.004Z,8.90
2017-10-30T18:48:30.449Z,9.00
2017-10-30T18:50:57.876Z,8.90
2017-10-30T18:53:25.320Z,8.90
2017-10-30T18:55:53.522Z,8.80
2017-10-30T18:58:20.944Z,8.80
2017-10-30T19:00:48.374Z,8.80
2017-10-30T19:03:15.804Z,8.80
2017-10-30T19:05:43.244Z,8.80
2017-10-30T19:08:10.660Z,8.70
2017-10-30T19:10:38.088Z,8.70
2017-10-30T19:13:05.504Z,8.60
2017-10-30T19:15:32.953Z,8.60
2017-10-30T19:18:01.170Z,8.50
2017-10-30T19:20:28.603Z,8.40
2017-10-30T19:22:56.031Z,8.50
2017-10-30T19:25:23.501Z,8.50
2017-10-30T19:27:50.925Z,8.50
2017-10-30T19:30:19.142Z,8.60
2017-10-30T19:32:46.581Z,8.50
2017-10-30T19:35:13.991Z,8.60
2017-10-30T19:37:41.419Z,8.50
2017-10-30T19:40:08.848Z,8.50
2017-10-30T19:42:36.274Z,8.50
2017-10-30T19:45:03.711Z,8.50
2017-10-30T19:47:31.164Z,8.40
2017-10-30T19:49:58.600Z,8.40
2017-10-30T19:52:26.020Z,8.40
2017-10-30T19:54:54.211Z,8.30
2017-10-30T19:57:21.662Z,8.30
2017-10-30T19:59:49.081Z,8.30
2017-10-30T20:02:16.555Z,8.30
2017-10-30T20:04:43.982Z,8.30
2017-10-30T20:07:17.181Z,8.20
2017-10-30T20:09:50.156Z,8.20
2017-10-30T20:12:23.548Z,8.10
2017-10-30T20:14:50.977Z,8.00
2017-10-30T20:17:18.409Z,8.00
2017-10-30T20:19:46.601Z,7.90
2017-10-30T20:22:14.048Z,7.90
2017-10-30T20:24:41.480Z,7.80
2017-10-30T20:27:08.909Z,7.80
2017-10-30T20:29:36.349Z,7.70
2017-10-30T20:32:03.784Z,7.70
2017-10-30T20:34:31.223Z,7.70
2017-10-30T20:36:59.413Z,7.70
2017-10-30T20:39:26.869Z,7.70
2017-10-30T20:41:54.288Z,7.60
2017-10-30T20:44:21.722Z,7.50
2017-10-30T20:46:49.139Z,7.50
2017-10-30T20:49:17.532Z,8.00
2017-10-30T20:51:44.949Z,7.30
2017-10-30T20:54:12.393Z,7.30
2017-10-30T20:56:40.589Z,7.20
2017-10-30T20:59:08.032Z,7.20
2017-10-30T21:01:35.451Z,7.30
2017-10-30T21:04:02.913Z,7.30
2017-10-30T21:06:30.341Z,7.20
2017-10-30T21:08:57.760Z,7.20
2017-10-30T21:11:25.197Z,7.20
2017-10-30T21:13:53.391Z,7.10
2017-10-30T21:16:20.841Z,7.10
2017-10-30T21:18:48.272Z,7.10
2017-10-30T21:21:15.741Z,7.10
2017-10-30T21:23:43.164Z,7.00
2017-10-30T21:26:10.631Z,7.00
2017-10-30T21:28:38.052Z,7.00
2017-10-30T21:31:05.489Z,7.00
2017-10-30T21:33:32.916Z,7.00
2017-10-30T21:36:00.375Z,6.90
2017-10-30T21:38:28.597Z,6.80
2017-10-30T21:40:56.020Z,6.80
2017-10-30T21:43:23.461Z,6.80
2017-10-30T21:45:50.901Z,6.80
2017-10-30T21:48:18.349Z,6.70
2017-10-30T21:50:45.780Z,6.70
2017-10-30T21:53:13.216Z,6.70
2017-10-30T21:55:40.657Z,6.70
2017-10-30T21:58:08.852Z,6.70
2017-10-30T22:00:36.312Z,6.60
2017-10-30T22:03:03.746Z,6.60
2017-10-30T22:05:31.172Z,6.60
2017-10-30T22:07:58.608Z,6.50
2017-10-30T22:10:26.052Z,6.40
2017-10-30T22:12:53.504Z,6.30
2017-10-30T22:15:20.932Z,6.30
2017-10-30T22:17:53.892Z,6.20
2017-10-30T22:20:22.096Z,6.10
2017-10-30T22:22:49.525Z,6.10
2017-10-30T22:25:16.961Z,6.10
2017-10-30T22:27:44.389Z,6.00
2017-10-30T22:30:11.820Z,5.90
2017-10-30T22:32:39.240Z,5.90
2017-10-30T22:35:06.676Z,5.90
2017-10-30T22:37:34.107Z,5.80
2017-10-30T22:40:01.541Z,5.80
2017-10-30T22:42:28.963Z,5.80
2017-10-30T22:44:56.401Z,5.80
2017-10-30T22:47:23.824Z,5.80
2017-10-30T22:49:51.261Z,5.70
2017-10-30T22:52:18.688Z,5.70
2017-10-30T22:54:46.120Z,5.60
2017-10-30T22:57:13.551Z,5.60
2017-10-30T22:59:40.980Z,5.60
2017-10-30T23:02:09.174Z,5.50
2017-10-30T23:04:36.609Z,5.50
2017-10-30T23:07:04.024Z,5.40
2017-10-30T23:09:31.456Z,5.30
2017-10-30T23:11:58.896Z,5.30
2017-10-30T23:14:26.321Z,5.30
2017-10-30T23:16:54.511Z,5.30
2017-10-30T23:19:21.935Z,5.30
2017-10-30T23:21:49.372Z,5.30
2017-10-30T23:24:16.789Z,5.30
2017-10-30T23:26:44.228Z,5.30
2017-10-30T23:29:12.404Z,5.30
2017-10-30T23:31:39.831Z,5.30
2017-10-30T23:34:07.256Z,5.30
2017-10-30T23:36:34.700Z,5.20
2017-10-30T23:39:02.125Z,5.10
2017-10-30T23:41:29.544Z,5.10
2017-10-30T23:43:57.172Z,5.10
2017-10-30T23:46:24.588Z,5.10
2017-10-30T23:48:52.020Z,5.10
2017-10-30T23:51:19.436Z,5.00
2017-10-30T23:53:47.631Z,5.00
2017-10-30T23:56:15.043Z,4.90
2017-10-30T23:58:42.489Z,5.00
